Time;durP1;ratioP1;P1;durP2;ratioP2;P2;SDS_P1;SDS_P2;PMS_P1;PMS_P2;Temp;Humidity;BMP_temperature;BMP_pressure;BME280_temperature;BME280_humidity;BME280_pressure;Samples;Min_cycle;Max_cycle;Signal;HPM_P1;HPM_P2
2021/04/04 00:00:12;;;;;;;17.73;13.18;;;5.30;92.10;;;;;;5035554;28;20204;-39
2021/04/04 00:02:40;;;;;;;19.27;14.18;;;5.30;92.20;;;;;;5035295;28;20214;-39
2021/04/04 00:05:09;;;;;;;18.95;12.85;;;5.30;92.20;;;;;;5035155;28;20220;-39
2021/04/04 00:07:38;;;;;;;15.60;11.88;;;5.30;92.30;;;;;;5035355;28;20215;-39
2021/04/04 00:10:09;;;;;;;17.17;13.52;;;5.40;92.30;;;;;;5035111;28;20662;-39
2021/04/04 00:12:36;;;;;;;14.35;11.90;;;5.40;92.40;;;;;;5035022;28;20744;-39
2021/04/04 00:15:05;;;;;;;12.70;11.35;;;5.40;92.40;;;;;;5035442;28;20299;-38
2021/04/04 00:17:32;;;;;;;18.10;12.25;;;5.30;92.50;;;;;;5035282;28;20295;-39
2021/04/04 00:19:59;;;;;;;15.00;11.05;;;5.30;92.70;;;;;;5035104;28;20262;-38
2021/04/04 00:22:26;;;;;;;13.77;11.10;;;5.20;92.80;;;;;;5034771;28;20591;-38
2021/04/04 00:24:53;;;;;;;16.00;11.30;;;5.10;92.90;;;;;;5035008;28;20320;-37
2021/04/04 00:27:21;;;;;;;16.33;12.00;;;5.10;93.00;;;;;;5035053;28;20236;-38
2021/04/04 00:29:48;;;;;;;14.40;12.07;;;5.10;93.00;;;;;;5035032;28;20647;-38
2021/04/04 00:32:14;;;;;;;13.82;11.07;;;5.10;93.00;;;;;;5034884;28;20215;-38
2021/04/04 00:34:41;;;;;;;15.73;12.48;;;5.10;93.10;;;;;;5034994;28;20205;-39
2021/04/04 00:37:09;;;;;;;13.45;11.10;;;5.10;93.20;;;;;;5034699;28;20217;-39
2021/04/04 00:39:36;;;;;;;17.90;11.77;;;5.00;93.20;;;;;;5034942;28;20213;-39
2021/04/04 00:42:04;;;;;;;13.52;10.85;;;5.00;93.30;;;;;;5034903;28;20300;-39
2021/04/04 00:44:32;;;;;;;13.27;9.90;;;5.00;93.40;;;;;;5034144;28;20713;-39
2021/04/04 00:46:59;;;;;;;14.00;10.70;;;4.90;93.40;;;;;;5034686;28;20308;-38
2021/04/04 00:49:26;;;;;;;13.60;11.35;;;4.90;93.50;;;;;;5033939;28;20435;-39
2021/04/04 00:51:56;;;;;;;15.85;10.70;;;4.90;93.50;;;;;;5034801;28;20300;-39
2021/04/04 00:54:25;;;;;;;15.02;11.07;;;4.90;93.50;;;;;;5034678;28;20288;-39
2021/04/04 00:56:52;;;;;;;17.17;11.35;;;4.80;93.60;;;;;;5034692;28;20270;-39
2021/04/04 00:59:20;;;;;;;13.90;10.02;;;4.60;93.70;;;;;;5034466;28;20216;-38
2021/04/04 01:01:48;;;;;;;16.38;10.85;;;4.60;94.00;;;;;;5034430;28;20240;-40
2021/04/04 01:04:15;;;;;;;11.55;9.20;;;4.50;94.20;;;;;;5034313;28;20228;-40
2021/04/04 01:06:42;;;;;;;10.60;9.10;;;4.40;94.30;;;;;;5034473;28;20274;-39
2021/04/04 01:09:09;;;;;;;11.65;9.85;;;4.30;94.50;;;;;;5034273;28;20213;-40
2021/04/04 01:11:46;;;;;;;14.68;11.70;;;4.30;94.70;;;;;;5034437;28;20363;-39
2021/04/04 01:14:20;;;;;;;13.98;10.63;;;4.20;94.90;;;;;;5034271;28;20232;-39
2021/04/04 01:16:56;;;;;;;15.52;11.48;;;4.20;95.00;;;;;;5034171;28;20310;-40
2021/04/04 01:19:46;;;;;;;15.10;10.00;;;4.20;95.10;;;;;;5034419;28;20204;-39
2021/04/04 01:22:27;;;;;;;14.75;9.77;;;4.20;95.20;;;;;;5034146;28;20319;-38
2021/04/04 01:25:05;;;;;;;13.07;8.88;;;4.20;95.20;;;;;;5033708;28;20232;-38
2021/04/04 01:27:44;;;;;;;11.02;8.88;;;4.30;95.10;;;;;;5034147;28;20223;-39
2021/04/04 01:30:15;;;;;;;20.10;15.25;;;4.40;95.00;;;;;;5033958;28;20653;-39
2021/04/04 01:32:44;;;;;;;11.98;10.75;;;4.40;94.90;;;;;;5033782;28;20616;-39
2021/04/04 01:35:15;;;;;;;11.27;9.88;;;4.40;94.90;;;;;;5033748;28;20630;-39
2021/04/04 01:37:44;;;;;;;10.65;9.30;;;4.40;94.90;;;;;;5033697;28;20240;-39
2021/04/04 01:40:15;;;;;;;12.23;9.10;;;4.40;95.00;;;;;;5033846;28;20212;-39
2021/04/04 01:42:44;;;;;;;14.13;10.35;;;4.40;95.00;;;;;;5033759;28;20720;-39
2021/04/04 01:45:12;;;;;;;13.77;9.85;;;4.30;95.10;;;;;;5033407;28;20673;-39
2021/04/04 01:47:41;;;;;;;14.75;10.00;;;4.30;95.20;;;;;;5033457;28;20670;-39
2021/04/04 01:50:11;;;;;;;12.15;9.23;;;4.30;95.20;;;;;;5033412;28;20213;-39
2021/04/04 01:52:38;;;;;;;12.68;9.23;;;4.40;95.20;;;;;;5033657;28;20212;-38
2021/04/04 01:55:08;;;;;;;10.00;9.02;;;4.40;95.20;;;;;;5033493;28;20215;-39
2021/04/04 01:57:36;;;;;;;11.10;9.43;;;4.30;95.20;;;;;;5033376;28;20300;-38
2021/04/04 02:00:12;;;;;;;11.45;9.93;;;4.30;95.30;;;;;;5033034;28;20308;-38
2021/04/04 02:02:39;;;;;;;16.15;10.07;;;4.20;95.40;;;;;;5032557;28;20208;-38
2021/04/04 02:05:08;;;;;;;13.52;10.82;;;4.20;95.50;;;;;;5033277;28;20679;-38
2021/04/04 02:07:38;;;;;;;13.20;9.93;;;4.10;95.70;;;;;;5033383;28;20248;-38
2021/04/04 02:10:07;;;;;;;14.05;10.25;;;4.00;95.90;;;;;;5033565;28;20208;-38
2021/04/04 02:12:35;;;;;;;12.18;8.98;;;4.00;96.10;;;;;;5033129;28;20204;-38
2021/04/04 02:15:05;;;;;;;18.25;12.98;;;3.90;96.10;;;;;;5032873;28;20205;-38
2021/04/04 02:17:36;;;;;;;12.25;10.93;;;3.80;96.30;;;;;;5033211;28;20612;-38
2021/04/04 02:20:05;;;;;;;12.95;9.73;;;3.80;96.40;;;;;;5032883;28;20304;-38
2021/04/04 02:22:33;;;;;;;12.35;8.90;;;3.80;96.60;;;;;;5032740;28;20483;-38
2021/04/04 02:25:01;;;;;;;11.27;9.23;;;3.80;96.60;;;;;;5032759;28;20650;-38
2021/04/04 02:27:28;;;;;;;17.98;10.50;;;3.80;96.70;;;;;;5032654;28;20248;-39
2021/04/04 02:29:55;;;;;;;11.20;9.98;;;3.80;96.80;;;;;;5032771;28;20266;-40
2021/04/04 02:32:26;;;;;;;12.60;9.32;;;3.70;96.80;;;;;;5032786;28;20255;-39
2021/04/04 02:34:58;;;;;;;15.50;11.88;;;3.80;96.80;;;;;;5032595;28;20209;-39
2021/04/04 02:37:25;;;;;;;20.50;13.23;;;3.80;96.90;;;;;;5032957;28;20291;-39
2021/04/04 02:39:56;;;;;;;18.10;11.05;;;3.80;96.90;;;;;;5032553;28;20209;-39
2021/04/04 02:42:25;;;;;;;13.82;10.50;;;3.90;96.80;;;;;;5032767;28;20577;-39
2021/04/04 02:44:55;;;;;;;14.85;11.95;;;3.90;96.80;;;;;;5032690;28;20289;-39
2021/04/04 02:47:35;;;;;;;12.82;9.48;;;3.90;96.70;;;;;;5032722;28;20213;-39
2021/04/04 02:50:04;;;;;;;14.65;10.98;;;3.90;96.70;;;;;;5032417;28;20215;-39
2021/04/04 02:52:36;;;;;;;19.95;10.95;;;3.90;96.70;;;;;;5032594;28;20299;-39
2021/04/04 02:55:07;;;;;;;15.98;10.32;;;3.90;96.70;;;;;;5032606;28;20635;-39
2021/04/04 02:57:34;;;;;;;12.32;10.63;;;4.00;96.60;;;;;;5032497;28;20267;-39
2021/04/04 03:00:04;;;;;;;12.48;10.80;;;4.10;96.80;;;;;;5032589;28;20235;-40
2021/04/04 03:02:33;;;;;;;12.27;9.70;;;4.10;96.40;;;;;;5032412;28;20205;-40
2021/04/04 03:05:02;;;;;;;15.93;10.30;;;4.10;96.30;;;;;;5032189;28;20224;-40
2021/04/04 03:07:31;;;;;;;11.50;9.68;;;4.20;96.20;;;;;;5032440;28;20247;-40
2021/04/04 03:10:02;;;;;;;11.55;9.57;;;4.20;96.20;;;;;;5032330;28;20527;-40
2021/04/04 03:12:31;;;;;;;13.02;9.80;;;4.20;96.20;;;;;;5031914;28;20267;-40
2021/04/04 03:15:01;;;;;;;16.30;10.13;;;4.10;96.10;;;;;;5032177;28;20247;-39
2021/04/04 03:17:30;;;;;;;9.60;8.40;;;4.20;96.20;;;;;;5032131;28;20294;-39
2021/04/04 03:19:58;;;;;;;11.55;8.75;;;4.10;96.40;;;;;;5032013;28;20303;-39
2021/04/04 03:22:27;;;;;;;12.02;8.82;;;4.00;96.60;;;;;;5032023;28;20268;-39
2021/04/04 03:24:56;;;;;;;10.82;8.52;;;3.90;96.70;;;;;;5031759;28;20263;-39
2021/04/04 03:27:23;;;;;;;9.50;7.97;;;3.90;96.80;;;;;;5032033;28;20205;-39
2021/04/04 03:29:51;;;;;;;12.07;8.05;;;3.90;96.90;;;;;;5031752;28;20263;-39
2021/04/04 03:32:18;;;;;;;11.20;9.15;;;3.90;96.90;;;;;;5032067;28;20266;-39
2021/04/04 03:34:46;;;;;;;11.65;8.93;;;3.90;96.90;;;;;;5032051;28;20656;-38
2021/04/04 03:37:14;;;;;;;9.57;8.35;;;3.90;96.90;;;;;;5032103;28;20244;-38
2021/04/04 03:39:42;;;;;;;9.93;8.55;;;4.00;97.10;;;;;;5031839;28;20274;-39
2021/04/04 03:42:12;;;;;;;9.05;7.85;;;4.00;96.80;;;;;;5032213;28;20291;-39
2021/04/04 03:44:40;;;;;;;16.77;8.90;;;3.90;96.90;;;;;;5031879;28;20239;-39
2021/04/04 03:47:08;;;;;;;12.95;8.90;;;3.90;96.90;;;;;;5031743;28;20223;-39
2021/04/04 03:49:38;;;;;;;11.48;8.73;;;4.00;96.90;;;;;;5031980;28;20299;-39
2021/04/04 03:52:07;;;;;;;11.88;9.02;;;4.00;96.80;;;;;;5031925;28;20299;-39
2021/04/04 03:54:36;;;;;;;14.98;9.35;;;4.00;96.80;;;;;;5031680;28;20554;-38
2021/04/04 03:57:05;;;;;;;11.77;9.18;;;4.00;96.80;;;;;;5031823;28;20300;-40
2021/04/04 03:59:34;;;;;;;11.40;8.38;;;4.00;96.70;;;;;;5031944;28;20216;-40
2021/04/04 04:02:02;;;;;;;10.40;8.30;;;4.00;96.80;;;;;;5031800;28;20233;-40
2021/04/04 04:04:30;;;;;;;13.77;8.68;;;4.00;96.80;;;;;;5031332;28;20239;-39
2021/04/04 04:06:58;;;;;;;8.95;7.88;;;4.00;96.80;;;;;;5031363;28;20215;-39
2021/04/04 04:09:26;;;;;;;10.77;8.88;;;4.00;96.80;;;;;;5031473;28;20213;-39
2021/04/04 04:11:54;;;;;;;15.18;9.00;;;4.00;96.80;;;;;;5031358;28;20691;-39
2021/04/04 04:14:23;;;;;;;10.35;7.78;;;4.00;96.70;;;;;;5031489;28;20209;-38
2021/04/04 04:16:51;;;;;;;10.85;8.57;;;4.00;96.80;;;;;;5031568;28;20209;-38
2021/04/04 04:19:19;;;;;;;9.85;8.20;;;3.80;96.90;;;;;;5031567;28;20208;-39
2021/04/04 04:21:46;;;;;;;13.25;8.23;;;3.70;97.10;;;;;;5031267;28;20626;-39
2021/04/04 04:24:15;;;;;;;14.27;9.82;;;3.60;97.30;;;;;;5031983;28;20266;-39
2021/04/04 04:26:43;;;;;;;14.07;8.48;;;3.40;97.50;;;;;;5035061;28;20228;-38
2021/04/04 04:29:11;;;;;;;10.63;7.97;;;3.30;97.70;;;;;;5034995;28;20295;-39
2021/04/04 04:31:41;;;;;;;12.70;8.77;;;3.30;98.00;;;;;;5034979;28;20209;-39
2021/04/04 04:34:11;;;;;;;10.02;8.25;;;3.20;98.10;;;;;;5035320;28;20299;-39
2021/04/04 04:36:39;;;;;;;9.75;7.53;;;3.20;98.10;;;;;;5034878;28;20270;-39
2021/04/04 04:39:08;;;;;;;7.38;6.40;;;3.10;98.50;;;;;;5035019;28;20291;-39
2021/04/04 04:41:37;;;;;;;13.02;5.95;;;3.10;98.30;;;;;;5035034;28;20213;-39
2021/04/04 04:44:06;;;;;;;7.70;5.65;;;3.10;98.40;;;;;;5034881;28;20312;-39
2021/04/04 04:46:34;;;;;;;7.95;5.55;;;3.10;98.50;;;;;;5034813;28;20338;-39
2021/04/04 04:49:01;;;;;;;7.80;6.13;;;3.10;98.50;;;;;;5034535;28;20236;-39
2021/04/04 04:51:30;;;;;;;8.05;6.65;;;3.10;98.50;;;;;;5034948;28;20213;-39
2021/04/04 04:53:58;;;;;;;10.95;6.65;;;3.10;98.60;;;;;;5034764;28;20209;-39
2021/04/04 04:56:26;;;;;;;7.55;5.97;;;3.10;98.70;;;;;;5034408;28;20726;-39
2021/04/04 04:58:54;;;;;;;7.65;5.80;;;3.10;98.70;;;;;;5034354;28;20244;-39
2021/04/04 05:01:27;;;;;;;8.57;6.47;;;3.10;99.00;;;;;;5034445;28;20292;-39
2021/04/04 05:03:54;;;;;;;7.70;6.90;;;3.10;98.70;;;;;;5034271;28;20303;-39
2021/04/04 05:06:25;;;;;;;14.25;8.07;;;3.20;98.70;;;;;;5034470;28;20260;-39
2021/04/04 05:08:54;;;;;;;9.77;8.20;;;3.30;98.50;;;;;;5034448;28;20296;-39
2021/04/04 05:11:22;;;;;;;11.05;7.95;;;3.40;98.40;;;;;;5034161;28;20299;-39
2021/04/04 05:13:49;;;;;;;11.35;7.13;;;3.50;98.20;;;;;;5034283;28;20232;-39
2021/04/04 05:16:17;;;;;;;9.40;6.80;;;3.50;98.00;;;;;;5034081;28;20288;-39
2021/04/04 05:18:47;;;;;;;8.15;6.82;;;3.50;98.00;;;;;;5034233;28;20248;-39
2021/04/04 05:21:23;;;;;;;9.10;6.13;;;3.60;98.30;;;;;;5033957;28;20215;-39
2021/04/04 05:23:55;;;;;;;11.52;7.45;;;3.60;98.00;;;;;;5033839;28;20730;-39
2021/04/04 05:26:27;;;;;;;10.68;6.97;;;3.70;98.20;;;;;;5033655;28;20292;-39
2021/04/04 05:28:54;;;;;;;11.13;8.32;;;3.70;97.90;;;;;;5034098;28;20880;-39
2021/04/04 05:31:21;;;;;;;12.07;7.80;;;3.70;97.90;;;;;;5033810;28;20595;-39
2021/04/04 05:33:49;;;;;;;13.05;8.05;;;3.80;97.80;;;;;;5034108;28;20303;-39
2021/04/04 05:36:16;;;;;;;8.07;6.80;;;3.90;97.70;;;;;;5033630;28;20642;-39
2021/04/04 05:38:43;;;;;;;11.43;6.95;;;4.00;97.50;;;;;;5033697;28;20205;-39
2021/04/04 05:41:12;;;;;;;12.02;7.18;;;4.20;97.30;;;;;;5033581;28;20295;-39
2021/04/04 05:43:45;;;;;;;10.60;7.90;;;4.40;97.00;;;;;;5033600;28;20702;-39
2021/04/04 05:46:19;;;;;;;10.20;8.48;;;4.50;96.80;;;;;;5033488;28;20323;-40
2021/04/04 05:48:56;;;;;;;8.63;7.25;;;4.70;96.60;;;;;;5033418;28;20370;-39
2021/04/04 05:51:32;;;;;;;10.25;8.18;;;4.80;96.40;;;;;;5033388;28;20244;-39
2021/04/04 05:54:17;;;;;;;12.40;8.65;;;5.00;96.20;;;;;;5033469;28;20240;-39
2021/04/04 05:56:50;;;;;;;11.07;7.20;;;5.10;96.00;;;;;;5033339;28;20637;-39
2021/04/04 05:59:27;;;;;;;8.55;7.75;;;5.10;95.90;;;;;;5033555;28;20303;-46
2021/04/04 06:02:30;;;;;;;9.73;7.82;;;5.10;96.00;;;;;;5033544;28;20296;-40
2021/04/04 06:05:02;;;;;;;11.55;7.18;;;5.10;95.90;;;;;;5031190;28;20216;-40
2021/04/04 06:07:59;;;;;;;8.68;7.03;;;5.30;95.70;;;;;;5033360;28;20406;-40
2021/04/04 06:10:35;;;;;;;9.18;7.18;;;5.30;95.50;;;;;;5033130;28;20236;-40
2021/04/04 06:13:11;;;;;;;11.60;7.18;;;5.30;95.50;;;;;;5033120;28;20389;-38
2021/04/04 06:15:50;;;;;;;12.20;7.47;;;5.30;95.50;;;;;;5033049;28;20291;-38
2021/04/04 06:18:28;;;;;;;9.90;5.85;;;5.20;95.50;;;;;;5033159;28;20278;-38
2021/04/04 06:21:01;;;;;;;6.93;6.07;;;5.20;95.30;;;;;;5032741;28;20635;-40
2021/04/04 06:23:34;;;;;;;10.93;6.93;;;5.20;95.20;;;;;;5032748;28;20328;-39
2021/04/04 06:26:19;;;;;;;9.18;7.18;;;5.30;95.10;;;;;;5032868;28;20228;-39
2021/04/04 06:28:53;;;;;;;11.55;6.32;;;5.60;94.80;;;;;;5032655;28;20299;-39
2021/04/04 06:31:34;;;;;;;9.48;7.60;;;5.70;94.50;;;;;;5032617;28;20248;-39
2021/04/04 06:34:11;;;;;;;10.05;9.10;;;5.80;94.20;;;;;;5032846;28;20227;-39
2021/04/04 06:36:43;;;;;;;12.07;8.32;;;6.00;94.10;;;;;;5032704;28;20659;-39
2021/04/04 06:39:23;;;;;;;9.65;8.32;;;6.10;93.90;;;;;;5032518;28;20213;-39
2021/04/04 06:42:10;;;;;;;15.57;8.32;;;6.40;93.60;;;;;;5032458;28;20215;-39
2021/04/04 06:45:01;;;;;;;13.68;6.70;;;6.50;93.30;;;;;;5030929;28;20240;-39
2021/04/04 06:47:40;;;;;;;12.63;8.25;;;6.70;92.90;;;;;;5031991;28;20212;-39
2021/04/04 06:50:16;;;;;;;12.05;9.48;;;6.90;92.70;;;;;;5032242;28;20299;-39
2021/04/04 06:53:02;;;;;;;11.82;7.75;;;7.00;92.60;;;;;;5032541;28;20212;-39
2021/04/04 06:55:45;;;;;;;9.75;6.93;;;7.10;92.40;;;;;;5032706;28;20319;-39
2021/04/04 06:58:21;;;;;;;9.18;7.38;;;7.30;92.00;;;;;;5032480;28;20227;-39
2021/04/04 07:01:01;;;;;;;10.52;7.70;;;7.40;91.80;;;;;;5032145;28;20291;-40
2021/04/04 07:03:35;;;;;;;8.45;6.57;;;7.60;91.50;;;;;;5032254;28;20657;-39
2021/04/04 07:06:15;;;;;;;8.23;7.25;;;7.70;91.20;;;;;;5032012;28;20274;-39
2021/04/04 07:09:01;;;;;;;8.65;7.40;;;7.60;91.00;;;;;;5031854;28;20251;-39
2021/04/04 07:11:33;;;;;;;12.30;7.68;;;7.60;91.00;;;;;;5032106;28;20213;-39
2021/04/04 07:14:25;;;;;;;7.95;7.18;;;7.60;91.00;;;;;;5031882;28;20681;-39
2021/04/04 07:17:21;;;;;;;9.85;7.20;;;7.70;90.80;;;;;;5031925;28;20279;-39
2021/04/04 07:20:03;;;;;;;9.40;7.88;;;7.90;90.40;;;;;;5031750;28;20613;-39
2021/04/04 07:23:12;;;;;;;11.63;7.93;;;8.10;90.40;;;;;;5031271;28;20706;-39
2021/04/04 07:25:45;;;;;;;9.60;7.38;;;8.20;90.00;;;;;;5020679;28;20237;-39
2021/04/04 07:28:24;;;;;;;10.50;7.38;;;8.40;89.60;;;;;;5031544;28;20209;-39
2021/04/04 07:30:55;;;;;;;12.02;7.70;;;8.60;88.90;;;;;;5031655;28;20343;-39
2021/04/04 07:33:35;;;;;;;11.27;7.47;;;8.70;88.60;;;;;;5031303;28;20295;-39
2021/04/04 07:36:09;;;;;;;10.32;6.53;;;8.80;87.90;;;;;;5031534;28;20193;-39
2021/04/04 07:38:45;;;;;;;9.13;8.20;;;8.80;87.40;;;;;;5031559;28;20231;-39
2021/04/04 07:41:18;;;;;;;7.57;6.70;;;9.00;86.80;;;;;;5031192;28;20216;-39
2021/04/04 07:43:51;;;;;;;11.73;7.20;;;9.00;86.50;;;;;;5031264;28;20516;-39
2021/04/04 07:46:25;;;;;;;9.32;5.97;;;9.00;86.30;;;;;;5031046;28;20256;-39
2021/04/04 07:49:25;;;;;;;8.52;6.13;;;9.10;85.80;;;;;;5031412;28;20299;-40
2021/04/04 07:51:55;;;;;;;7.95;6.25;;;9.30;85.10;;;;;;5031257;28;20256;-40
2021/04/04 07:54:29;;;;;;;7.10;6.30;;;9.30;84.80;;;;;;5031009;28;20259;-40
2021/04/04 07:57:04;;;;;;;7.28;6.22;;;9.50;84.50;;;;;;5031458;28;20239;-39
2021/04/04 07:59:38;;;;;;;7.70;5.97;;;9.50;83.90;;;;;;5033264;28;20248;-38
2021/04/04 08:02:12;;;;;;;8.38;5.90;;;9.60;83.00;;;;;;5034879;28;20213;-38
2021/04/04 08:04:45;;;;;;;7.05;5.05;;;9.70;82.60;;;;;;5035029;28;20248;-39
2021/04/04 08:07:16;;;;;;;7.25;5.38;;;9.80;81.70;;;;;;5034711;28;20327;-38
2021/04/04 08:09:49;;;;;;;7.90;5.93;;;10.00;81.00;;;;;;5035138;28;20303;-38
2021/04/04 08:12:26;;;;;;;16.40;13.13;;;10.10;80.30;;;;;;5034885;28;20303;-38
2021/04/04 08:14:58;;;;;;;8.23;7.40;;;10.00;79.60;;;;;;5034887;28;20243;-38
2021/04/04 08:17:25;;;;;;;6.70;5.07;;;10.00;79.60;;;;;;5034851;28;20293;-38
2021/04/04 08:19:59;;;;;;;16.58;9.40;;;9.90;78.90;;;;;;5034919;28;20244;-39
2021/04/04 08:22:31;;;;;;;8.00;5.53;;;9.90;78.60;;;;;;5034481;28;20283;-38
2021/04/04 08:25:04;;;;;;;11.10;6.22;;;9.90;78.50;;;;;;5034696;28;20213;-38
2021/04/04 08:27:35;;;;;;;7.90;5.43;;;9.80;78.20;;;;;;5034505;28;20726;-43
2021/04/04 08:30:10;;;;;;;6.85;5.07;;;9.80;77.80;;;;;;5034532;28;20697;-39
2021/04/04 08:32:46;;;;;;;9.13;5.03;;;9.90;77.40;;;;;;5034305;28;20303;-39
2021/04/04 08:35:21;;;;;;;11.40;6.55;;;10.10;77.10;;;;;;5034422;28;20266;-38
2021/04/04 08:37:53;;;;;;;13.90;10.23;;;10.30;75.80;;;;;;5034370;28;20310;-39
2021/04/04 08:40:21;;;;;;;11.18;5.22;;;10.40;75.20;;;;;;5034176;28;20240;-39
2021/04/04 08:42:50;;;;;;;7.80;4.65;;;10.50;74.40;;;;;;5034405;28;20718;-38
2021/04/04 08:45:24;;;;;;;7.22;5.82;;;10.50;74.20;;;;;;5034334;28;20208;-40
2021/04/04 08:47:53;;;;;;;6.57;4.75;;;10.60;74.30;;;;;;5034420;28;20212;-38
2021/04/04 08:50:22;;;;;;;6.25;3.70;;;10.60;73.70;;;;;;5034129;28;20205;-38
2021/04/04 08:52:51;;;;;;;5.65;4.78;;;10.70;72.60;;;;;;5033994;28;20252;-39
2021/04/04 08:55:22;;;;;;;3.67;3.25;;;10.90;71.00;;;;;;5034513;28;20228;-39
2021/04/04 08:57:51;;;;;;;3.58;2.60;;;11.00;70.20;;;;;;5034036;28;20259;-39
2021/04/04 09:00:20;;;;;;;4.47;3.30;;;11.20;68.70;;;;;;5034203;28;20220;-39
2021/04/04 09:02:52;;;;;;;5.15;2.53;;;11.20;67.70;;;;;;5034134;28;20248;-40
2021/04/04 09:05:25;;;;;;;4.55;2.85;;;11.30;66.50;;;;;;5033639;28;20316;-39
2021/04/04 09:07:56;;;;;;;3.95;2.38;;;11.30;64.70;;;;;;5034015;28;20263;-39
2021/04/04 09:10:23;;;;;;;2.08;1.88;;;11.30;62.90;;;;;;5033443;28;20236;-39
2021/04/04 09:12:51;;;;;;;4.28;3.03;;;11.20;62.70;;;;;;5033612;28;20301;-40
2021/04/04 09:15:22;;;;;;;6.78;2.95;;;11.20;62.40;;;;;;5033614;28;20221;-39
2021/04/04 09:17:51;;;;;;;4.03;3.13;;;11.30;62.20;;;;;;5033602;28;20239;-38
2021/04/04 09:20:19;;;;;;;2.88;2.40;;;11.50;61.50;;;;;;5033729;28;20681;-37
2021/04/04 09:22:49;;;;;;;3.00;2.67;;;11.60;61.40;;;;;;5033497;28;20751;-38
2021/04/04 09:25:18;;;;;;;3.00;2.65;;;11.80;60.70;;;;;;5033459;28;20247;-38
2021/04/04 09:27:46;;;;;;;5.43;3.15;;;11.90;60.20;;;;;;5033312;28;20768;-39
2021/04/04 09:30:23;;;;;;;3.42;2.40;;;12.00;59.60;;;;;;5033830;28;20322;-39
2021/04/04 09:32:54;;;;;;;4.03;2.88;;;12.10;59.20;;;;;;5033804;28;20208;-38
2021/04/04 09:35:23;;;;;;;3.70;3.00;;;12.30;58.60;;;;;;5033595;28;20303;-39
2021/04/04 09:37:52;;;;;;;3.42;2.17;;;12.40;58.30;;;;;;5033558;28;20585;-39
2021/04/04 09:40:20;;;;;;;3.45;2.50;;;12.50;57.70;;;;;;5033281;28;20287;-39
2021/04/04 09:42:47;;;;;;;4.13;2.53;;;12.70;57.70;;;;;;5033132;28;20205;-42
2021/04/04 09:45:16;;;;;;;4.10;2.85;;;12.90;56.60;;;;;;5034628;28;20208;-40
2021/04/04 09:47:43;;;;;;;5.40;3.15;;;13.10;55.60;;;;;;5032998;28;20663;-39
2021/04/04 09:50:18;;;;;;;3.80;2.67;;;13.10;55.70;;;;;;5033449;28;20635;-39
2021/04/04 09:52:45;;;;;;;3.92;3.38;;;13.10;55.10;;;;;;5032809;28;20311;-39
2021/04/04 09:55:17;;;;;;;5.15;2.72;;;12.80;55.00;;;;;;5033037;28;20220;-40
2021/04/04 09:57:59;;;;;;;4.32;3.17;;;12.40;55.80;;;;;;5033076;28;20213;-40
2021/04/04 10:00:28;;;;;;;3.45;2.90;;;12.40;56.10;;;;;;5032802;28;20671;-40
2021/04/04 10:02:56;;;;;;;3.75;2.83;;;12.60;55.70;;;;;;5032748;28;20643;-40
2021/04/04 10:05:29;;;;;;;4.10;3.28;;;12.70;55.00;;;;;;5032638;28;20616;-40
2021/04/04 10:08:07;;;;;;;3.08;2.78;;;12.70;54.40;;;;;;5032690;28;20209;-40
2021/04/04 10:10:36;;;;;;;7.07;3.08;;;12.70;54.40;;;;;;5032615;28;20208;-39
2021/04/04 10:13:04;;;;;;;3.95;2.85;;;12.60;54.10;;;;;;5032705;28;20295;-40
2021/04/04 10:15:46;;;;;;;3.15;2.72;;;12.40;54.20;;;;;;5032599;28;20295;-42
2021/04/04 10:18:14;;;;;;;2.92;2.60;;;12.20;54.10;;;;;;5032608;28;20626;-41
2021/04/04 10:20:45;;;;;;;5.35;3.22;;;12.20;54.90;;;;;;5032718;28;20291;-41
2021/04/04 10:23:13;;;;;;;3.72;2.72;;;12.20;54.70;;;;;;5031577;28;20651;-41
2021/04/04 10:25:58;;;;;;;2.70;2.35;;;12.30;54.30;;;;;;5032703;28;20373;-41
2021/04/04 10:28:40;;;;;;;4.07;2.80;;;12.50;53.70;;;;;;5032568;28;20208;-40
2021/04/04 10:31:06;;;;;;;4.43;2.67;;;12.50;53.70;;;;;;5032129;28;20274;-40
2021/04/04 10:33:34;;;;;;;3.78;2.92;;;12.50;53.30;;;;;;5032431;28;20238;-40
2021/04/04 10:36:20;;;;;;;3.25;2.22;;;12.60;52.80;;;;;;5032356;28;20221;-39
2021/04/04 10:38:47;;;;;;;5.10;3.45;;;12.70;52.60;;;;;;5032099;28;20300;-39
2021/04/04 10:41:25;;;;;;;4.53;2.72;;;12.70;52.50;;;;;;5032082;28;20299;-39
2021/04/04 10:43:53;;;;;;;4.55;2.78;;;12.80;51.90;;;;;;5032195;28;20738;-39
2021/04/04 10:46:25;;;;;;;4.45;3.08;;;12.90;51.30;;;;;;5031747;28;20673;-39
2021/04/04 10:48:53;;;;;;;3.05;2.75;;;12.80;51.00;;;;;;5031934;28;20687;-39
2021/04/04 10:51:21;;;;;;;4.03;2.92;;;12.80;51.90;;;;;;5031794;28;20208;-39
2021/04/04 10:53:49;;;;;;;4.50;3.53;;;13.00;51.70;;;;;;5031795;28;20303;-40
2021/04/04 10:56:17;;;;;;;7.18;4.22;;;13.10;51.70;;;;;;5031955;28;20204;-40
2021/04/04 10:58:45;;;;;;;5.13;3.38;;;13.20;51.60;;;;;;5032070;28;20308;-41
2021/04/04 11:01:13;;;;;;;5.50;3.40;;;13.30;51.20;;;;;;5032140;28;20299;-40
2021/04/04 11:03:42;;;;;;;2.97;2.67;;;13.20;50.90;;;;;;5031614;28;20217;-40
2021/04/04 11:06:12;;;;;;;3.45;3.15;;;13.10;51.10;;;;;;5031315;28;20232;-39
2021/04/04 11:08:40;;;;;;;4.88;3.67;;;13.10;51.20;;;;;;5031709;28;20209;-40
2021/04/04 11:11:08;;;;;;;2.88;2.58;;;13.10;50.70;;;;;;5031891;28;20208;-40
2021/04/04 11:13:40;;;;;;;2.92;2.63;;;13.10;50.60;;;;;;5031878;28;20312;-42
2021/04/04 11:16:09;;;;;;;3.55;2.80;;;13.00;50.80;;;;;;5031702;28;20259;-40
2021/04/04 11:18:41;;;;;;;4.00;3.60;;;13.10;50.80;;;;;;5031587;28;20227;-40
2021/04/04 11:21:11;;;;;;;5.75;3.13;;;13.10;50.80;;;;;;5031921;28;20236;-39
2021/04/04 11:23:39;;;;;;;4.03;3.15;;;13.10;50.90;;;;;;5031314;28;20311;-39
2021/04/04 11:26:21;;;;;;;3.45;3.15;;;13.00;50.80;;;;;;5031611;28;20260;-39
2021/04/04 11:29:08;;;;;;;3.88;2.85;;;13.00;50.60;;;;;;5031763;28;20350;-39
2021/04/04 11:31:35;;;;;;;3.03;2.45;;;13.00;50.10;;;;;;5031924;28;20631;-39
2021/04/04 11:34:29;;;;;;;5.25;2.47;;;13.00;50.50;;;;;;5033873;28;20296;-42
2021/04/04 11:36:56;;;;;;;4.60;3.10;;;13.00;49.90;;;;;;5026360;28;20647;-41
2021/04/04 11:39:23;;;;;;;2.88;2.30;;;13.00;50.20;;;;;;5035579;28;20239;-41
2021/04/04 11:41:52;;;;;;;3.45;3.13;;;13.10;49.90;;;;;;5035627;28;20651;-39
2021/04/04 11:44:28;;;;;;;3.60;2.60;;;13.10;49.30;;;;;;5035983;28;20205;-39
2021/04/04 11:46:57;;;;;;;5.30;3.05;;;13.00;49.30;;;;;;5035405;28;20315;-39
2021/04/04 11:49:49;;;;;;;3.25;2.85;;;13.00;49.40;;;;;;5035621;28;20346;-39
2021/04/04 11:52:46;;;;;;;4.93;2.97;;;13.10;49.20;;;;;;5035684;28;20273;-39
2021/04/04 11:55:14;;;;;;;3.72;2.78;;;13.20;48.70;;;;;;5035585;28;20209;-39
2021/04/04 11:57:43;;;;;;;2.90;2.60;;;13.30;48.90;;;;;;5035129;28;20288;-39
2021/04/04 12:00:15;;;;;;;5.60;4.65;;;13.40;48.70;;;;;;5035301;28;20626;-39
2021/04/04 12:02:59;;;;;;;10.07;7.32;;;13.40;48.50;;;;;;5035030;28;20219;-39
2021/04/04 12:05:32;;;;;;;6.30;3.92;;;13.40;48.60;;;;;;5035436;28;20213;-40
2021/04/04 12:07:59;;;;;;;4.20;3.20;;;13.30;48.90;;;;;;5035246;28;20228;-39
2021/04/04 12:10:29;;;;;;;4.43;3.10;;;13.20;49.20;;;;;;5035066;28;20209;-39
2021/04/04 12:12:57;;;;;;;4.18;3.50;;;13.20;49.40;;;;;;5035025;28;20209;-39
2021/04/04 12:15:26;;;;;;;4.07;3.65;;;13.10;49.60;;;;;;5035168;28;20259;-39
2021/04/04 12:17:54;;;;;;;5.03;3.15;;;13.10;50.00;;;;;;5034909;28;20594;-38
2021/04/04 12:20:23;;;;;;;4.30;3.53;;;13.10;49.80;;;;;;5034817;28;20303;-39
2021/04/04 12:22:51;;;;;;;4.20;3.33;;;13.20;49.70;;;;;;5034706;28;20331;-42
2021/04/04 12:25:19;;;;;;;4.13;3.00;;;13.10;49.50;;;;;;5034744;28;20681;-41
2021/04/04 12:27:50;;;;;;;5.60;3.40;;;13.10;49.50;;;;;;5034944;28;20554;-40
2021/04/04 12:30:29;;;;;;;5.05;2.78;;;13.10;49.50;;;;;;5034900;28;20236;-39
2021/04/04 12:33:04;;;;;;;3.15;2.85;;;13.10;48.20;;;;;;5034951;28;20208;-40
2021/04/04 12:35:32;;;;;;;4.63;3.08;;;13.00;48.50;;;;;;5034577;28;20208;-41
2021/04/04 12:38:00;;;;;;;4.63;3.08;;;12.90;48.70;;;;;;5034401;28;20283;-41
2021/04/04 12:40:27;;;;;;;3.33;3.03;;;13.00;48.60;;;;;;5034706;28;20255;-39
2021/04/04 12:42:55;;;;;;;4.85;3.33;;;13.00;48.50;;;;;;5034556;28;20236;-40
2021/04/04 12:45:23;;;;;;;4.38;3.33;;;13.00;48.20;;;;;;5033572;28;20244;-39
2021/04/04 12:47:51;;;;;;;4.25;3.85;;;13.10;48.20;;;;;;5034101;28;20646;-40
2021/04/04 12:50:23;;;;;;;3.72;3.30;;;13.10;48.00;;;;;;5034167;28;20296;-43
2021/04/04 12:52:51;;;;;;;3.70;3.28;;;13.00;48.00;;;;;;5034475;28;20236;-39
2021/04/04 12:55:25;;;;;;;4.03;2.83;;;13.00;48.40;;;;;;5034255;28;20388;-40
2021/04/04 12:57:59;;;;;;;4.20;2.78;;;13.20;48.20;;;;;;5034204;28;20266;-40
2021/04/04 13:00:28;;;;;;;4.20;2.95;;;13.30;47.80;;;;;;5034021;28;20212;-40
2021/04/04 13:03:05;;;;;;;4.95;3.03;;;13.30;48.00;;;;;;5033872;28;20262;-40
2021/04/04 13:05:38;;;;;;;5.60;2.95;;;13.30;48.10;;;;;;5034203;28;20306;-40
2021/04/04 13:08:13;;;;;;;3.38;2.63;;;13.40;47.90;;;;;;5034063;28;20548;-40
2021/04/04 13:10:41;;;;;;;4.60;3.55;;;13.30;47.20;;;;;;5033879;28;20258;-40